Ikan Parang — 9V9099 — position and weather

sailwx.info

Track history (hours):
 
Tides and Currents Weather Stations Pressure Air Temp Water Temp Dewpoint Dewpoint Depression Visibility Wind Speed Wind Dir Waves Ship Positions

Ikan Parang

Last reported at 2015-Dec-26 16:32 UTC. Time now 2016-Feb-08 23:18 UTC.
Position N 31°20' E 121°41'.
Warning: this ship's position is 44 days out of date.

Length 183 m; draft 9.8 m.

Type: Cargo ship. MMSI: 566238000.

Date/timePositionNaut miles runAvg speedWind from/ knotsBaromVisibWave heightAir tempDewpointWater temp
2015-Dec-26 16:32N 31°20' E 121°41'8 8.7
2015-Dec-26 15:33N 31°24' E 121°32'7 7.1
2015-Dec-26 14:32N 31°29' E 121°26'10 9.4
2015-Dec-26 13:28N 31°36' E 121°17'1311.0
2015-Dec-26 12:17N 31°45' E 121°06'17 9.4
2015-Dec-26 10:31N 31°56' E 120°52'19 8.8
2015-Dec-26 08:20N 32°02' E 120°30'14 7.6
2015-Dec-26 06:32N 31°56' E 120°15'1010.3
2015-Dec-26 05:33N 31°58' E 120°04'  
2015-Dec-19 19:10N 32°00' E 119°58'14 8.7
2015-Dec-19 17:33N 31°56' E 120°14'1110.5
2015-Dec-19 16:30N 32°02' E 120°25'8 8.7
2015-Dec-19 15:33N 32°02' E 120°34'9 9.0
2015-Dec-19 14:32N 32°01' E 120°45'1010.3
2015-Dec-19 13:33N 31°53' E 120°53'1110.9
2015-Dec-19 12:32N 31°46' E 121°03'1313.0
2015-Dec-19 11:33N 31°38' E 121°15'1212.4
2015-Dec-19 10:33N 31°30' E 121°26'9 9.5
2015-Dec-19 09:33N 31°24' E 121°34'1310.7
2015-Dec-19 08:23N 31°16' E 121°46'1112.8
2015-Dec-19 07:33N 31°08' E 121°54'57 3.8
2015-Dec-18 16:24N 30°46' E 122°55'1011.2
2015-Dec-18 15:32N 30°39' E 122°48'2914.5
2015-Dec-18 13:34N 30°33' E 122°15'1716.4
2015-Dec-18 12:32N 30°31' E 121°55'19 3.7
2015-Dec-18 07:28N 30°13' E 122°03'  
Track history (hours):
 
Tides and Currents Weather Stations Pressure Air Temp Water Temp Dewpoint Dewpoint Depression Visibility Wind Speed Wind Dir Waves Ship Positions

Ikan Parang

Last reported at 2015-Dec-26 16:32 UTC. Time now 2016-Feb-08 23:18 UTC.
Position N 31°20' E 121°41'.
Warning: this ship's position is 44 days out of date.

Length 183 m; draft 9.8 m.

Type: Cargo ship. MMSI: 566238000.

Date/timePositionNaut miles runAvg speedWind from/ knotsBaromVisibWave heightAir tempDewpointWater temp
2015-Dec-26 16:32N 31°20' E 121°41'8 8.7
2015-Dec-26 15:33N 31°24' E 121°32'7 7.1
2015-Dec-26 14:32N 31°29' E 121°26'10 9.4
2015-Dec-26 13:28N 31°36' E 121°17'1311.0
2015-Dec-26 12:17N 31°45' E 121°06'17 9.4
2015-Dec-26 10:31N 31°56' E 120°52'19 8.8
2015-Dec-26 08:20N 32°02' E 120°30'14 7.6
2015-Dec-26 06:32N 31°56' E 120°15'1010.3
2015-Dec-26 05:33N 31°58' E 120°04'  
2015-Dec-19 19:10N 32°00' E 119°58'14 8.7
2015-Dec-19 17:33N 31°56' E 120°14'1110.5
2015-Dec-19 16:30N 32°02' E 120°25'8 8.7
2015-Dec-19 15:33N 32°02' E 120°34'9 9.0
2015-Dec-19 14:32N 32°01' E 120°45'1010.3
2015-Dec-19 13:33N 31°53' E 120°53'1110.9
2015-Dec-19 12:32N 31°46' E 121°03'1313.0
2015-Dec-19 11:33N 31°38' E 121°15'1212.4
2015-Dec-19 10:33N 31°30' E 121°26'9 9.5
2015-Dec-19 09:33N 31°24' E 121°34'1310.7
2015-Dec-19 08:23N 31°16' E 121°46'1112.8
2015-Dec-19 07:33N 31°08' E 121°54'57 3.8
2015-Dec-18 16:24N 30°46' E 122°55'1011.2
2015-Dec-18 15:32N 30°39' E 122°48'2914.5
2015-Dec-18 13:34N 30°33' E 122°15'1716.4
2015-Dec-18 12:32N 30°31' E 121°55'19 3.7
2015-Dec-18 07:28N 30°13' E 122°03'  

Dump ship's entire track history